sensor_id;sensor_type;location;lat;lon;timestamp;P1;durP1;ratioP1;P2;durP2;ratioP2
73296;SDS011;61524;50.938;11.396;2023-04-24T00:00:53;2.22;;;1.40;;
73296;SDS011;61524;50.938;11.396;2023-04-24T00:03:22;2.67;;;1.20;;
73296;SDS011;61524;50.938;11.396;2023-04-24T00:05:48;3.70;;;1.52;;
73296;SDS011;61524;50.938;11.396;2023-04-24T00:08:14;2.63;;;1.00;;
73296;SDS011;61524;50.938;11.396;2023-04-24T00:10:40;2.30;;;1.27;;
73296;SDS011;61524;50.938;11.396;2023-04-24T00:13:06;1.95;;;0.98;;
73296;SDS011;61524;50.938;11.396;2023-04-24T00:15:31;3.17;;;1.40;;
73296;SDS011;61524;50.938;11.396;2023-04-24T00:17:58;2.08;;;1.13;;
73296;SDS011;61524;50.938;11.396;2023-04-24T00:20:23;1.50;;;0.82;;
73296;SDS011;61524;50.938;11.396;2023-04-24T00:22:48;2.67;;;1.45;;
73296;SDS011;61524;50.938;11.396;2023-04-24T00:25:14;2.05;;;0.93;;
73296;SDS011;61524;50.938;11.396;2023-04-24T00:27:40;2.15;;;1.00;;
73296;SDS011;61524;50.938;11.396;2023-04-24T00:30:05;2.35;;;1.10;;
73296;SDS011;61524;50.938;11.396;2023-04-24T00:32:31;4.78;;;1.50;;
73296;SDS011;61524;50.938;11.396;2023-04-24T00:34:57;1.25;;;0.70;;
73296;SDS011;61524;50.938;11.396;2023-04-24T00:37:22;2.45;;;1.10;;
73296;SDS011;61524;50.938;11.396;2023-04-24T00:39:48;2.20;;;1.10;;
73296;SDS011;61524;50.938;11.396;2023-04-24T00:42:13;5.75;;;1.33;;
73296;SDS011;61524;50.938;11.396;2023-04-24T00:44:39;1.92;;;1.02;;
73296;SDS011;61524;50.938;11.396;2023-04-24T00:47:04;2.25;;;1.10;;
73296;SDS011;61524;50.938;11.396;2023-04-24T00:49:30;3.53;;;1.15;;
73296;SDS011;61524;50.938;11.396;2023-04-24T00:51:56;2.15;;;1.25;;
73296;SDS011;61524;50.938;11.396;2023-04-24T00:54:21;1.98;;;1.20;;
73296;SDS011;61524;50.938;11.396;2023-04-24T00:56:47;2.85;;;1.20;;
73296;SDS011;61524;50.938;11.396;2023-04-24T00:59:14;2.35;;;1.13;;
73296;SDS011;61524;50.938;11.396;2023-04-24T01:01:42;2.53;;;1.33;;
73296;SDS011;61524;50.938;11.396;2023-04-24T01:04:11;2.33;;;1.23;;
73296;SDS011;61524;50.938;11.396;2023-04-24T01:06:40;2.42;;;1.10;;
73296;SDS011;61524;50.938;11.396;2023-04-24T01:09:08;2.95;;;1.00;;
73296;SDS011;61524;50.938;11.396;2023-04-24T01:11:36;2.30;;;1.23;;
73296;SDS011;61524;50.938;11.396;2023-04-24T01:14:02;2.13;;;1.10;;
73296;SDS011;61524;50.938;11.396;2023-04-24T01:16:27;2.28;;;1.15;;
73296;SDS011;61524;50.938;11.396;2023-04-24T01:18:53;2.45;;;1.35;;
73296;SDS011;61524;50.938;11.396;2023-04-24T01:21:18;2.78;;;1.15;;
73296;SDS011;61524;50.938;11.396;2023-04-24T01:23:46;3.38;;;1.27;;
73296;SDS011;61524;50.938;11.396;2023-04-24T01:26:12;2.75;;;1.40;;
73296;SDS011;61524;50.938;11.396;2023-04-24T01:28:39;2.67;;;1.30;;
73296;SDS011;61524;50.938;11.396;2023-04-24T01:31:05;4.30;;;1.30;;
73296;SDS011;61524;50.938;11.396;2023-04-24T01:33:31;2.50;;;1.25;;
73296;SDS011;61524;50.938;11.396;2023-04-24T01:35:58;2.03;;;1.00;;
73296;SDS011;61524;50.938;11.396;2023-04-24T01:38:24;3.85;;;1.30;;
73296;SDS011;61524;50.938;11.396;2023-04-24T01:40:50;2.55;;;1.23;;
73296;SDS011;61524;50.938;11.396;2023-04-24T01:43:16;2.15;;;1.25;;
73296;SDS011;61524;50.938;11.396;2023-04-24T01:45:42;2.50;;;1.30;;
73296;SDS011;61524;50.938;11.396;2023-04-24T01:48:08;3.50;;;1.23;;
73296;SDS011;61524;50.938;11.396;2023-04-24T01:50:34;2.22;;;1.30;;
73296;SDS011;61524;50.938;11.396;2023-04-24T01:52:59;3.13;;;1.10;;
73296;SDS011;61524;50.938;11.396;2023-04-24T01:55:25;3.38;;;1.42;;
73296;SDS011;61524;50.938;11.396;2023-04-24T01:57:52;2.08;;;1.30;;
73296;SDS011;61524;50.938;11.396;2023-04-24T02:00:20;4.07;;;1.40;;
73296;SDS011;61524;50.938;11.396;2023-04-24T02:02:45;4.15;;;1.63;;
73296;SDS011;61524;50.938;11.396;2023-04-24T02:05:11;3.63;;;1.50;;
73296;SDS011;61524;50.938;11.396;2023-04-24T02:07:36;2.15;;;1.17;;
73296;SDS011;61524;50.938;11.396;2023-04-24T02:10:02;2.75;;;1.55;;
73296;SDS011;61524;50.938;11.396;2023-04-24T02:14:54;2.72;;;1.75;;
73296;SDS011;61524;50.938;11.396;2023-04-24T02:17:19;2.97;;;1.38;;
73296;SDS011;61524;50.938;11.396;2023-04-24T02:19:45;3.55;;;1.70;;
73296;SDS011;61524;50.938;11.396;2023-04-24T02:22:11;2.58;;;1.98;;
73296;SDS011;61524;50.938;11.396;2023-04-24T02:24:37;3.28;;;1.75;;
73296;SDS011;61524;50.938;11.396;2023-04-24T02:27:03;3.10;;;1.55;;
73296;SDS011;61524;50.938;11.396;2023-04-24T02:29:28;2.95;;;1.70;;
73296;SDS011;61524;50.938;11.396;2023-04-24T02:31:54;2.60;;;1.35;;
73296;SDS011;61524;50.938;11.396;2023-04-24T02:34:19;3.67;;;1.42;;
73296;SDS011;61524;50.938;11.396;2023-04-24T02:36:45;2.60;;;1.95;;
73296;SDS011;61524;50.938;11.396;2023-04-24T02:39:10;4.28;;;1.63;;
73296;SDS011;61524;50.938;11.396;2023-04-24T02:41:36;3.00;;;1.55;;
73296;SDS011;61524;50.938;11.396;2023-04-24T02:44:02;3.13;;;1.50;;
73296;SDS011;61524;50.938;11.396;2023-04-24T02:46:27;2.55;;;1.80;;
73296;SDS011;61524;50.938;11.396;2023-04-24T02:48:52;3.50;;;1.90;;
73296;SDS011;61524;50.938;11.396;2023-04-24T02:51:18;3.58;;;1.70;;
73296;SDS011;61524;50.938;11.396;2023-04-24T02:53:43;2.78;;;1.70;;
73296;SDS011;61524;50.938;11.396;2023-04-24T02:56:09;3.55;;;1.58;;
73296;SDS011;61524;50.938;11.396;2023-04-24T02:58:37;2.60;;;1.60;;
73296;SDS011;61524;50.938;11.396;2023-04-24T03:01:02;3.42;;;1.95;;
73296;SDS011;61524;50.938;11.396;2023-04-24T03:03:28;4.15;;;1.75;;
73296;SDS011;61524;50.938;11.396;2023-04-24T03:05:53;4.95;;;2.35;;
73296;SDS011;61524;50.938;11.396;2023-04-24T03:08:20;3.35;;;1.70;;
73296;SDS011;61524;50.938;11.396;2023-04-24T03:10:45;3.47;;;1.52;;
73296;SDS011;61524;50.938;11.396;2023-04-24T03:13:11;4.03;;;2.20;;
73296;SDS011;61524;50.938;11.396;2023-04-24T03:15:36;3.78;;;2.00;;
73296;SDS011;61524;50.938;11.396;2023-04-24T03:18:02;5.18;;;2.40;;
73296;SDS011;61524;50.938;11.396;2023-04-24T03:20:27;2.97;;;1.77;;
73296;SDS011;61524;50.938;11.396;2023-04-24T03:22:53;3.58;;;2.17;;
73296;SDS011;61524;50.938;11.396;2023-04-24T03:25:19;4.05;;;2.20;;
73296;SDS011;61524;50.938;11.396;2023-04-24T03:27:44;3.40;;;2.10;;
73296;SDS011;61524;50.938;11.396;2023-04-24T03:30:10;3.05;;;1.80;;
73296;SDS011;61524;50.938;11.396;2023-04-24T03:32:35;4.00;;;2.53;;
73296;SDS011;61524;50.938;11.396;2023-04-24T03:35:01;3.53;;;1.73;;
73296;SDS011;61524;50.938;11.396;2023-04-24T03:37:26;3.97;;;1.90;;
73296;SDS011;61524;50.938;11.396;2023-04-24T03:39:52;3.33;;;2.22;;
73296;SDS011;61524;50.938;11.396;2023-04-24T03:42:17;4.70;;;2.10;;
73296;SDS011;61524;50.938;11.396;2023-04-24T03:44:43;3.80;;;1.90;;
73296;SDS011;61524;50.938;11.396;2023-04-24T03:47:08;3.28;;;1.77;;
73296;SDS011;61524;50.938;11.396;2023-04-24T03:49:34;3.80;;;2.20;;
73296;SDS011;61524;50.938;11.396;2023-04-24T03:51:59;4.32;;;2.47;;
73296;SDS011;61524;50.938;11.396;2023-04-24T03:54:25;3.33;;;2.10;;
73296;SDS011;61524;50.938;11.396;2023-04-24T03:56:50;3.30;;;1.83;;
73296;SDS011;61524;50.938;11.396;2023-04-24T03:59:16;3.55;;;2.15;;
73296;SDS011;61524;50.938;11.396;2023-04-24T04:01:41;4.35;;;2.80;;
73296;SDS011;61524;50.938;11.396;2023-04-24T04:04:07;5.15;;;1.80;;
73296;SDS011;61524;50.938;11.396;2023-04-24T04:06:33;3.40;;;1.80;;
73296;SDS011;61524;50.938;11.396;2023-04-24T04:08:58;5.53;;;2.90;;
73296;SDS011;61524;50.938;11.396;2023-04-24T04:11:24;3.17;;;2.38;;
73296;SDS011;61524;50.938;11.396;2023-04-24T04:13:50;3.50;;;2.38;;
73296;SDS011;61524;50.938;11.396;2023-04-24T04:16:16;3.65;;;1.92;;
73296;SDS011;61524;50.938;11.396;2023-04-24T04:18:42;3.60;;;2.22;;
73296;SDS011;61524;50.938;11.396;2023-04-24T04:21:08;3.65;;;2.63;;
73296;SDS011;61524;50.938;11.396;2023-04-24T04:23:33;4.57;;;2.40;;
73296;SDS011;61524;50.938;11.396;2023-04-24T04:25:59;4.25;;;2.20;;
73296;SDS011;61524;50.938;11.396;2023-04-24T04:28:24;3.53;;;2.30;;
73296;SDS011;61524;50.938;11.396;2023-04-24T04:30:51;4.25;;;2.30;;
73296;SDS011;61524;50.938;11.396;2023-04-24T04:33:19;3.75;;;2.53;;
73296;SDS011;61524;50.938;11.396;2023-04-24T04:35:45;4.18;;;1.92;;
73296;SDS011;61524;50.938;11.396;2023-04-24T04:38:13;3.75;;;2.20;;
73296;SDS011;61524;50.938;11.396;2023-04-24T04:40:40;12.32;;;2.30;;
73296;SDS011;61524;50.938;11.396;2023-04-24T04:43:05;3.33;;;2.25;;
73296;SDS011;61524;50.938;11.396;2023-04-24T04:45:31;3.05;;;1.63;;
73296;SDS011;61524;50.938;11.396;2023-04-24T04:47:58;2.72;;;1.40;;
73296;SDS011;61524;50.938;11.396;2023-04-24T04:50:25;4.03;;;1.90;;
73296;SDS011;61524;50.938;11.396;2023-04-24T04:52:51;3.22;;;1.90;;
73296;SDS011;61524;50.938;11.396;2023-04-24T04:55:17;3.95;;;2.17;;
73296;SDS011;61524;50.938;11.396;2023-04-24T04:57:44;3.80;;;1.90;;
73296;SDS011;61524;50.938;11.396;2023-04-24T05:00:10;3.47;;;1.92;;
73296;SDS011;61524;50.938;11.396;2023-04-24T05:02:37;2.80;;;1.70;;
73296;SDS011;61524;50.938;11.396;2023-04-24T05:05:03;3.28;;;1.80;;
73296;SDS011;61524;50.938;11.396;2023-04-24T05:07:28;3.95;;;1.50;;
73296;SDS011;61524;50.938;11.396;2023-04-24T05:09:54;3.47;;;2.15;;
73296;SDS011;61524;50.938;11.396;2023-04-24T05:12:19;3.90;;;1.95;;
73296;SDS011;61524;50.938;11.396;2023-04-24T05:14:44;2.95;;;1.70;;
73296;SDS011;61524;50.938;11.396;2023-04-24T05:17:10;4.18;;;2.00;;
73296;SDS011;61524;50.938;11.396;2023-04-24T05:19:36;2.60;;;1.35;;
73296;SDS011;61524;50.938;11.396;2023-04-24T05:22:03;2.90;;;1.65;;
73296;SDS011;61524;50.938;11.396;2023-04-24T05:24:31;3.70;;;1.65;;
73296;SDS011;61524;50.938;11.396;2023-04-24T05:26:58;3.45;;;1.73;;
73296;SDS011;61524;50.938;11.396;2023-04-24T05:29:24;2.72;;;1.20;;
73296;SDS011;61524;50.938;11.396;2023-04-24T05:31:51;3.22;;;1.20;;
73296;SDS011;61524;50.938;11.396;2023-04-24T05:34:16;5.40;;;1.48;;
73296;SDS011;61524;50.938;11.396;2023-04-24T05:36:42;3.42;;;1.65;;
73296;SDS011;61524;50.938;11.396;2023-04-24T05:39:07;2.72;;;1.45;;
73296;SDS011;61524;50.938;11.396;2023-04-24T05:41:33;2.47;;;1.27;;
73296;SDS011;61524;50.938;11.396;2023-04-24T05:43:59;5.65;;;1.38;;
73296;SDS011;61524;50.938;11.396;2023-04-24T05:46:25;3.22;;;1.25;;
73296;SDS011;61524;50.938;11.396;2023-04-24T05:48:50;2.25;;;1.05;;
73296;SDS011;61524;50.938;11.396;2023-04-24T05:51:15;3.53;;;1.02;;
73296;SDS011;61524;50.938;11.396;2023-04-24T05:53:41;2.40;;;1.20;;
73296;SDS011;61524;50.938;11.396;2023-04-24T05:56:06;3.58;;;1.30;;
73296;SDS011;61524;50.938;11.396;2023-04-24T05:58:32;3.35;;;0.93;;
73296;SDS011;61524;50.938;11.396;2023-04-24T06:00:57;3.35;;;1.05;;
73296;SDS011;61524;50.938;11.396;2023-04-24T06:03:24;2.42;;;1.20;;
73296;SDS011;61524;50.938;11.396;2023-04-24T06:05:50;2.25;;;0.82;;
73296;SDS011;61524;50.938;11.396;2023-04-24T06:08:16;2.42;;;1.30;;
73296;SDS011;61524;50.938;11.396;2023-04-24T06:10:41;2.60;;;1.10;;
73296;SDS011;61524;50.938;11.396;2023-04-24T06:13:07;2.60;;;0.98;;
73296;SDS011;61524;50.938;11.396;2023-04-24T06:15:32;2.88;;;0.70;;
73296;SDS011;61524;50.938;11.396;2023-04-24T06:17:58;2.50;;;0.82;;
73296;SDS011;61524;50.938;11.396;2023-04-24T06:20:24;6.07;;;1.80;;
73296;SDS011;61524;50.938;11.396;2023-04-24T06:22:50;1.75;;;1.00;;
73296;SDS011;61524;50.938;11.396;2023-04-24T06:25:15;1.75;;;0.90;;
73296;SDS011;61524;50.938;11.396;2023-04-24T06:27:41;2.33;;;0.80;;
73296;SDS011;61524;50.938;11.396;2023-04-24T06:30:06;2.17;;;1.08;;
73296;SDS011;61524;50.938;11.396;2023-04-24T06:32:32;4.90;;;1.00;;
73296;SDS011;61524;50.938;11.396;2023-04-24T06:34:58;2.17;;;0.93;;
73296;SDS011;61524;50.938;11.396;2023-04-24T06:37:23;2.88;;;1.10;;
73296;SDS011;61524;50.938;11.396;2023-04-24T06:39:48;2.63;;;1.00;;
73296;SDS011;61524;50.938;11.396;2023-04-24T06:42:14;2.50;;;1.10;;
73296;SDS011;61524;50.938;11.396;2023-04-24T06:44:40;2.60;;;1.10;;
73296;SDS011;61524;50.938;11.396;2023-04-24T06:47:09;1.70;;;0.88;;
73296;SDS011;61524;50.938;11.396;2023-04-24T06:49:36;1.85;;;0.88;;
73296;SDS011;61524;50.938;11.396;2023-04-24T06:52:02;1.73;;;0.80;;
73296;SDS011;61524;50.938;11.396;2023-04-24T06:54:28;2.58;;;1.20;;
73296;SDS011;61524;50.938;11.396;2023-04-24T06:56:54;2.45;;;1.15;;
73296;SDS011;61524;50.938;11.396;2023-04-24T06:59:20;2.10;;;0.90;;
73296;SDS011;61524;50.938;11.396;2023-04-24T07:01:45;2.03;;;1.45;;
73296;SDS011;61524;50.938;11.396;2023-04-24T07:04:11;1.95;;;1.08;;
73296;SDS011;61524;50.938;11.396;2023-04-24T07:06:38;1.85;;;1.15;;
73296;SDS011;61524;50.938;11.396;2023-04-24T07:09:04;1.90;;;0.98;;
73296;SDS011;61524;50.938;11.396;2023-04-24T07:11:29;3.40;;;1.02;;
73296;SDS011;61524;50.938;11.396;2023-04-24T07:13:55;2.42;;;0.90;;
73296;SDS011;61524;50.938;11.396;2023-04-24T07:16:20;4.10;;;1.25;;
73296;SDS011;61524;50.938;11.396;2023-04-24T07:18:46;2.03;;;0.93;;
73296;SDS011;61524;50.938;11.396;2023-04-24T07:21:12;1.95;;;0.90;;
73296;SDS011;61524;50.938;11.396;2023-04-24T07:23:37;1.13;;;0.70;;
73296;SDS011;61524;50.938;11.396;2023-04-24T07:26:03;1.35;;;0.88;;
73296;SDS011;61524;50.938;11.396;2023-04-24T07:28:29;2.00;;;1.08;;
73296;SDS011;61524;50.938;11.396;2023-04-24T07:30:57;1.17;;;0.80;;
73296;SDS011;61524;50.938;11.396;2023-04-24T07:33:23;1.77;;;0.98;;
73296;SDS011;61524;50.938;11.396;2023-04-24T07:35:49;1.27;;;0.90;;
73296;SDS011;61524;50.938;11.396;2023-04-24T07:38:14;2.40;;;1.00;;
73296;SDS011;61524;50.938;11.396;2023-04-24T07:40:40;1.60;;;0.93;;
73296;SDS011;61524;50.938;11.396;2023-04-24T07:43:05;2.72;;;0.93;;
73296;SDS011;61524;50.938;11.396;2023-04-24T07:45:31;2.30;;;0.90;;
73296;SDS011;61524;50.938;11.396;2023-04-24T07:47:58;2.15;;;1.10;;
73296;SDS011;61524;50.938;11.396;2023-04-24T07:50:24;1.50;;;0.80;;
73296;SDS011;61524;50.938;11.396;2023-04-24T07:52:49;2.97;;;0.85;;
73296;SDS011;61524;50.938;11.396;2023-04-24T07:55:15;2.35;;;1.10;;
73296;SDS011;61524;50.938;11.396;2023-04-24T07:57:40;0.85;;;0.60;;
73296;SDS011;61524;50.938;11.396;2023-04-24T08:00:06;3.33;;;0.93;;
73296;SDS011;61524;50.938;11.396;2023-04-24T08:02:33;2.53;;;1.00;;
73296;SDS011;61524;50.938;11.396;2023-04-24T08:04:58;3.35;;;1.13;;
73296;SDS011;61524;50.938;11.396;2023-04-24T08:07:24;3.15;;;1.73;;
73296;SDS011;61524;50.938;11.396;2023-04-24T08:09:49;3.42;;;0.90;;
73296;SDS011;61524;50.938;11.396;2023-04-24T08:12:15;3.85;;;1.60;;
73296;SDS011;61524;50.938;11.396;2023-04-24T08:14:40;1.08;;;0.73;;
73296;SDS011;61524;50.938;11.396;2023-04-24T08:17:06;1.92;;;0.90;;
73296;SDS011;61524;50.938;11.396;2023-04-24T08:19:31;1.83;;;0.65;;
73296;SDS011;61524;50.938;11.396;2023-04-24T08:21:57;2.38;;;0.80;;
73296;SDS011;61524;50.938;11.396;2023-04-24T08:24:22;2.10;;;0.80;;
73296;SDS011;61524;50.938;11.396;2023-04-24T08:26:48;1.08;;;0.60;;
73296;SDS011;61524;50.938;11.396;2023-04-24T08:29:15;1.40;;;0.98;;
73296;SDS011;61524;50.938;11.396;2023-04-24T08:31:41;1.67;;;0.90;;
73296;SDS011;61524;50.938;11.396;2023-04-24T08:34:06;1.27;;;0.75;;
73296;SDS011;61524;50.938;11.396;2023-04-24T08:36:32;1.52;;;0.60;;
73296;SDS011;61524;50.938;11.396;2023-04-24T08:38:57;4.22;;;1.00;;
73296;SDS011;61524;50.938;11.396;2023-04-24T08:41:23;2.25;;;0.80;;
73296;SDS011;61524;50.938;11.396;2023-04-24T08:43:51;1.77;;;0.82;;
73296;SDS011;61524;50.938;11.396;2023-04-24T08:46:17;1.58;;;0.77;;
73296;SDS011;61524;50.938;11.396;2023-04-24T08:48:44;1.85;;;0.90;;
73296;SDS011;61524;50.938;11.396;2023-04-24T08:51:10;2.17;;;0.88;;
73296;SDS011;61524;50.938;11.396;2023-04-24T08:53:36;2.63;;;1.30;;
73296;SDS011;61524;50.938;11.396;2023-04-24T08:56:02;1.67;;;0.75;;
73296;SDS011;61524;50.938;11.396;2023-04-24T08:58:28;1.27;;;0.88;;
73296;SDS011;61524;50.938;11.396;2023-04-24T09:00:55;3.10;;;1.05;;
73296;SDS011;61524;50.938;11.396;2023-04-24T09:03:20;6.00;;;1.05;;
73296;SDS011;61524;50.938;11.396;2023-04-24T09:05:47;1.65;;;0.70;;
73296;SDS011;61524;50.938;11.396;2023-04-24T09:08:14;1.42;;;0.82;;
73296;SDS011;61524;50.938;11.396;2023-04-24T09:10:42;1.85;;;1.10;;
73296;SDS011;61524;50.938;11.396;2023-04-24T09:13:08;2.55;;;1.23;;
73296;SDS011;61524;50.938;11.396;2023-04-24T09:18:01;1.95;;;0.95;;
73296;SDS011;61524;50.938;11.396;2023-04-24T09:20:26;2.40;;;0.90;;
73296;SDS011;61524;50.938;11.396;2023-04-24T09:22:56;1.58;;;0.75;;
73296;SDS011;61524;50.938;11.396;2023-04-24T09:25:22;2.15;;;0.90;;
73296;SDS011;61524;50.938;11.396;2023-04-24T09:27:47;2.05;;;0.90;;
73296;SDS011;61524;50.938;11.396;2023-04-24T09:30:13;1.83;;;0.85;;
73296;SDS011;61524;50.938;11.396;2023-04-24T09:32:39;2.47;;;1.30;;
73296;SDS011;61524;50.938;11.396;2023-04-24T09:35:10;3.33;;;1.00;;
73296;SDS011;61524;50.938;11.396;2023-04-24T09:42:36;1.92;;;0.98;;
73296;SDS011;61524;50.938;11.396;2023-04-24T09:45:02;2.30;;;0.90;;
73296;SDS011;61524;50.938;11.396;2023-04-24T09:47:28;1.52;;;0.93;;
73296;SDS011;61524;50.938;11.396;2023-04-24T09:50:08;2.53;;;1.00;;
73296;SDS011;61524;50.938;11.396;2023-04-24T09:52:35;2.78;;;0.88;;
73296;SDS011;61524;50.938;11.396;2023-04-24T09:55:00;2.08;;;1.00;;
73296;SDS011;61524;50.938;11.396;2023-04-24T09:57:26;2.72;;;1.10;;
73296;SDS011;61524;50.938;11.396;2023-04-24T09:59:53;2.72;;;1.30;;
73296;SDS011;61524;50.938;11.396;2023-04-24T10:02:18;2.00;;;1.00;;
73296;SDS011;61524;50.938;11.396;2023-04-24T10:04:53;3.55;;;1.20;;
73296;SDS011;61524;50.938;11.396;2023-04-24T10:07:21;1.48;;;0.73;;
73296;SDS011;61524;50.938;11.396;2023-04-24T10:09:47;1.98;;;0.95;;
73296;SDS011;61524;50.938;11.396;2023-04-24T10:12:12;2.00;;;1.10;;
73296;SDS011;61524;50.938;11.396;2023-04-24T10:14:38;1.77;;;0.82;;
73296;SDS011;61524;50.938;11.396;2023-04-24T10:17:04;1.33;;;0.75;;
73296;SDS011;61524;50.938;11.396;2023-04-24T10:19:31;2.22;;;1.20;;
73296;SDS011;61524;50.938;11.396;2023-04-24T10:21:57;2.70;;;1.40;;
73296;SDS011;61524;50.938;11.396;2023-04-24T10:24:23;1.85;;;0.82;;
73296;SDS011;61524;50.938;11.396;2023-04-24T10:26:48;1.92;;;0.90;;
73296;SDS011;61524;50.938;11.396;2023-04-24T10:29:16;3.90;;;1.33;;
73296;SDS011;61524;50.938;11.396;2023-04-24T10:31:43;2.20;;;1.10;;
73296;SDS011;61524;50.938;11.396;2023-04-24T10:34:11;2.03;;;1.00;;
73296;SDS011;61524;50.938;11.396;2023-04-24T10:36:41;2.45;;;0.90;;
73296;SDS011;61524;50.938;11.396;2023-04-24T10:39:11;2.25;;;0.95;;
73296;SDS011;61524;50.938;11.396;2023-04-24T10:41:39;1.85;;;1.00;;
73296;SDS011;61524;50.938;11.396;2023-04-24T10:44:08;2.45;;;0.88;;
73296;SDS011;61524;50.938;11.396;2023-04-24T10:46:35;3.88;;;1.50;;
73296;SDS011;61524;50.938;11.396;2023-04-24T10:49:05;1.60;;;1.00;;
73296;SDS011;61524;50.938;11.396;2023-04-24T10:54:35;2.40;;;1.10;;
73296;SDS011;61524;50.938;11.396;2023-04-24T10:59:46;1.83;;;0.80;;
73296;SDS011;61524;50.938;11.396;2023-04-24T11:02:15;1.73;;;0.90;;
73296;SDS011;61524;50.938;11.396;2023-04-24T11:04:41;2.08;;;1.02;;
73296;SDS011;61524;50.938;11.396;2023-04-24T11:07:08;1.85;;;1.10;;
73296;SDS011;61524;50.938;11.396;2023-04-24T11:09:34;3.03;;;1.02;;
73296;SDS011;61524;50.938;11.396;2023-04-24T11:12:11;3.78;;;1.23;;
73296;SDS011;61524;50.938;11.396;2023-04-24T11:17:35;2.72;;;1.38;;
73296;SDS011;61524;50.938;11.396;2023-04-24T11:20:09;4.70;;;1.20;;
73296;SDS011;61524;50.938;11.396;2023-04-24T11:22:37;2.22;;;1.10;;
73296;SDS011;61524;50.938;11.396;2023-04-24T11:25:07;2.65;;;1.23;;
73296;SDS011;61524;50.938;11.396;2023-04-24T11:27:39;1.98;;;0.90;;
73296;SDS011;61524;50.938;11.396;2023-04-24T11:30:09;3.47;;;1.00;;
73296;SDS011;61524;50.938;11.396;2023-04-24T11:32:36;2.40;;;1.08;;
73296;SDS011;61524;50.938;11.396;2023-04-24T11:35:14;2.40;;;1.08;;
73296;SDS011;61524;50.938;11.396;2023-04-24T11:37:42;3.00;;;1.20;;
73296;SDS011;61524;50.938;11.396;2023-04-24T11:40:11;2.03;;;1.02;;
73296;SDS011;61524;50.938;11.396;2023-04-24T11:42:38;2.92;;;1.05;;
73296;SDS011;61524;50.938;11.396;2023-04-24T11:45:09;2.67;;;1.15;;
73296;SDS011;61524;50.938;11.396;2023-04-24T11:47:38;1.58;;;0.82;;
73296;SDS011;61524;50.938;11.396;2023-04-24T11:50:05;1.75;;;0.90;;
73296;SDS011;61524;50.938;11.396;2023-04-24T11:52:33;2.10;;;1.13;;
73296;SDS011;61524;50.938;11.396;2023-04-24T11:55:02;3.22;;;1.00;;
73296;SDS011;61524;50.938;11.396;2023-04-24T11:59:58;2.13;;;0.80;;
73296;SDS011;61524;50.938;11.396;2023-04-24T12:02:25;2.42;;;1.23;;
73296;SDS011;61524;50.938;11.396;2023-04-24T12:04:52;3.53;;;1.00;;
73296;SDS011;61524;50.938;11.396;2023-04-24T12:07:18;2.15;;;0.93;;
73296;SDS011;61524;50.938;11.396;2023-04-24T12:09:45;2.60;;;1.00;;
73296;SDS011;61524;50.938;11.396;2023-04-24T12:12:25;2.58;;;1.20;;
73296;SDS011;61524;50.938;11.396;2023-04-24T12:14:53;6.60;;;1.05;;
73296;SDS011;61524;50.938;11.396;2023-04-24T12:17:24;1.60;;;0.90;;
73296;SDS011;61524;50.938;11.396;2023-04-24T12:19:56;1.85;;;0.98;;
73296;SDS011;61524;50.938;11.396;2023-04-24T12:27:30;1.83;;;1.00;;
73296;SDS011;61524;50.938;11.396;2023-04-24T12:29:58;1.73;;;0.88;;
73296;SDS011;61524;50.938;11.396;2023-04-24T12:32:24;3.40;;;1.10;;
73296;SDS011;61524;50.938;11.396;2023-04-24T12:34:50;5.63;;;1.40;;
73296;SDS011;61524;50.938;11.396;2023-04-24T12:42:33;1.83;;;0.80;;
73296;SDS011;61524;50.938;11.396;2023-04-24T12:45:03;1.33;;;0.82;;
73296;SDS011;61524;50.938;11.396;2023-04-24T12:47:31;2.17;;;1.02;;
73296;SDS011;61524;50.938;11.396;2023-04-24T12:49:58;3.42;;;1.08;;
73296;SDS011;61524;50.938;11.396;2023-04-24T12:52:24;2.63;;;1.60;;
73296;SDS011;61524;50.938;11.396;2023-04-24T12:54:52;2.30;;;1.10;;
73296;SDS011;61524;50.938;11.396;2023-04-24T12:57:18;3.17;;;1.45;;
73296;SDS011;61524;50.938;11.396;2023-04-24T12:59:44;1.65;;;0.90;;
73296;SDS011;61524;50.938;11.396;2023-04-24T13:02:10;1.83;;;0.93;;
73296;SDS011;61524;50.938;11.396;2023-04-24T13:04:36;1.85;;;0.80;;
73296;SDS011;61524;50.938;11.396;2023-04-24T13:07:01;2.38;;;1.10;;
73296;SDS011;61524;50.938;11.396;2023-04-24T13:09:27;2.72;;;1.40;;
73296;SDS011;61524;50.938;11.396;2023-04-24T13:11:52;2.80;;;1.00;;
73296;SDS011;61524;50.938;11.396;2023-04-24T13:14:18;1.92;;;0.80;;
73296;SDS011;61524;50.938;11.396;2023-04-24T13:16:44;3.03;;;1.30;;
73296;SDS011;61524;50.938;11.396;2023-04-24T13:19:10;1.55;;;0.90;;
73296;SDS011;61524;50.938;11.396;2023-04-24T13:21:35;1.83;;;0.98;;
73296;SDS011;61524;50.938;11.396;2023-04-24T13:24:00;1.73;;;0.90;;
73296;SDS011;61524;50.938;11.396;2023-04-24T13:26:26;2.28;;;1.10;;
73296;SDS011;61524;50.938;11.396;2023-04-24T13:28:51;3.10;;;1.15;;
73296;SDS011;61524;50.938;11.396;2023-04-24T13:31:17;2.42;;;1.05;;
73296;SDS011;61524;50.938;11.396;2023-04-24T13:33:42;2.10;;;0.85;;
73296;SDS011;61524;50.938;11.396;2023-04-24T13:36:08;3.50;;;1.10;;
73296;SDS011;61524;50.938;11.396;2023-04-24T13:38:33;1.50;;;0.85;;
73296;SDS011;61524;50.938;11.396;2023-04-24T13:40:59;1.67;;;0.75;;
73296;SDS011;61524;50.938;11.396;2023-04-24T13:43:25;1.40;;;0.85;;
73296;SDS011;61524;50.938;11.396;2023-04-24T13:45:50;2.65;;;1.33;;
73296;SDS011;61524;50.938;11.396;2023-04-24T13:48:16;1.73;;;0.82;;
73296;SDS011;61524;50.938;11.396;2023-04-24T13:50:42;1.58;;;0.80;;
73296;SDS011;61524;50.938;11.396;2023-04-24T13:53:09;1.33;;;0.90;;
73296;SDS011;61524;50.938;11.396;2023-04-24T13:55:34;2.28;;;0.70;;
73296;SDS011;61524;50.938;11.396;2023-04-24T13:58:00;1.38;;;0.60;;
73296;SDS011;61524;50.938;11.396;2023-04-24T14:00:26;2.33;;;0.50;;
73296;SDS011;61524;50.938;11.396;2023-04-24T14:02:52;1.23;;;0.63;;
73296;SDS011;61524;50.938;11.396;2023-04-24T14:05:17;0.98;;;0.60;;
73296;SDS011;61524;50.938;11.396;2023-04-24T14:07:43;0.52;;;0.40;;
73296;SDS011;61524;50.938;11.396;2023-04-24T14:10:08;3.22;;;0.88;;
73296;SDS011;61524;50.938;11.396;2023-04-24T14:12:35;1.27;;;0.63;;
73296;SDS011;61524;50.938;11.396;2023-04-24T14:15:00;0.45;;;0.30;;
73296;SDS011;61524;50.938;11.396;2023-04-24T14:17:26;0.77;;;0.45;;
73296;SDS011;61524;50.938;11.396;2023-04-24T14:19:52;1.45;;;0.63;;
73296;SDS011;61524;50.938;11.396;2023-04-24T14:22:21;0.65;;;0.40;;
73296;SDS011;61524;50.938;11.396;2023-04-24T14:24:46;0.70;;;0.40;;
73296;SDS011;61524;50.938;11.396;2023-04-24T14:27:12;0.65;;;0.43;;
73296;SDS011;61524;50.938;11.396;2023-04-24T14:29:37;0.65;;;0.40;;
73296;SDS011;61524;50.938;11.396;2023-04-24T14:32:03;1.42;;;0.75;;
73296;SDS011;61524;50.938;11.396;2023-04-24T14:34:28;0.60;;;0.30;;
73296;SDS011;61524;50.938;11.396;2023-04-24T14:36:54;0.75;;;0.40;;
73296;SDS011;61524;50.938;11.396;2023-04-24T14:39:19;1.33;;;0.52;;
73296;SDS011;61524;50.938;11.396;2023-04-24T14:41:45;1.73;;;0.47;;
73296;SDS011;61524;50.938;11.396;2023-04-24T14:44:11;0.57;;;0.32;;
73296;SDS011;61524;50.938;11.396;2023-04-24T14:46:36;1.00;;;0.43;;
73296;SDS011;61524;50.938;11.396;2023-04-24T14:49:02;0.98;;;0.52;;
73296;SDS011;61524;50.938;11.396;2023-04-24T14:51:27;0.70;;;0.40;;
73296;SDS011;61524;50.938;11.396;2023-04-24T14:53:53;0.70;;;0.40;;
73296;SDS011;61524;50.938;11.396;2023-04-24T14:56:18;0.73;;;0.38;;
73296;SDS011;61524;50.938;11.396;2023-04-24T14:58:44;0.32;;;0.32;;